createdAt,value
2024-04-09T00:00:55.512Z,88
2024-04-09T00:02:07.445Z,88
2024-04-09T00:03:19.481Z,88
2024-04-09T00:04:31.630Z,88
2024-04-09T00:05:43.481Z,89
2024-04-09T00:06:55.456Z,89
2024-04-09T00:08:10.855Z,89
2024-04-09T00:09:19.548Z,89
2024-04-09T00:10:31.467Z,89
2024-04-09T00:11:43.513Z,89
2024-04-09T00:12:55.444Z,89
2024-04-09T00:14:07.472Z,89
2024-04-09T00:15:19.467Z,89
2024-04-09T00:16:31.471Z,89
2024-04-09T00:17:43.531Z,89
2024-04-09T00:18:55.548Z,89
2024-04-09T00:20:07.450Z,89
2024-04-09T00:21:19.485Z,89
2024-04-09T00:22:31.478Z,89
2024-04-09T00:23:43.481Z,89
2024-04-09T00:24:55.457Z,89
2024-04-09T00:26:07.472Z,89
2024-04-09T00:27:19.535Z,89
2024-04-09T00:28:31.555Z,89
2024-04-09T00:29:43.449Z,89
2024-04-09T00:30:55.504Z,89
2024-04-09T00:32:07.465Z,89
2024-04-09T00:33:19.768Z,89
2024-04-09T00:34:31.660Z,89
2024-04-09T00:35:43.438Z,89
2024-04-09T00:36:55.514Z,89
2024-04-09T00:38:07.555Z,89
2024-04-09T00:39:19.451Z,88
2024-04-09T00:40:31.484Z,88
2024-04-09T00:41:43.442Z,88
2024-04-09T00:42:55.446Z,88
2024-04-09T00:44:07.467Z,88
2024-04-09T00:45:19.498Z,88
2024-04-09T00:46:31.594Z,88
2024-04-09T00:47:45.675Z,88
2024-04-09T00:48:55.689Z,88
2024-04-09T00:50:07.505Z,88
2024-04-09T00:51:20.084Z,89
2024-04-09T00:52:31.922Z,89
2024-04-09T00:53:43.912Z,89
2024-04-09T00:54:55.895Z,88
2024-04-09T00:56:07.965Z,88
2024-04-09T00:57:19.899Z,88
2024-04-09T00:58:31.933Z,88
2024-04-09T00:59:43.912Z,88
2024-04-09T01:00:55.921Z,87
2024-04-09T01:02:07.907Z,87
2024-04-09T01:03:20.016Z,87
2024-04-09T01:04:32.246Z,87
2024-04-09T01:05:43.880Z,87
2024-04-09T01:06:55.905Z,88
2024-04-09T01:08:07.954Z,87
2024-04-09T01:09:19.912Z,88
2024-04-09T01:10:31.893Z,88
2024-04-09T01:11:43.909Z,88
2024-04-09T01:12:55.878Z,88
2024-04-09T01:14:07.929Z,87
2024-04-09T01:15:19.942Z,87
2024-04-09T01:16:31.939Z,87
2024-04-09T01:17:43.941Z,88
2024-04-09T01:18:55.917Z,88
2024-04-09T01:20:07.930Z,88
2024-04-09T01:21:19.987Z,88
2024-04-09T01:22:32.016Z,87
2024-04-09T01:23:43.926Z,88
2024-04-09T01:24:55.939Z,88
2024-04-09T01:26:07.881Z,87
2024-04-09T01:27:19.890Z,87
2024-04-09T01:28:31.953Z,87
2024-04-09T01:29:43.892Z,87
2024-04-09T01:30:55.932Z,87
2024-04-09T01:32:07.881Z,87
2024-04-09T01:33:20.076Z,87
2024-04-09T01:34:31.921Z,85
2024-04-09T01:35:43.891Z,84
2024-04-09T01:36:55.894Z,84
2024-04-09T01:38:07.928Z,84
2024-04-09T01:39:19.892Z,85
2024-04-09T01:40:31.880Z,84
2024-04-09T01:41:43.887Z,84
2024-04-09T01:42:55.892Z,83
2024-04-09T01:44:07.899Z,84
2024-04-09T01:45:19.897Z,84
2024-04-09T01:46:31.871Z,81
2024-04-09T01:47:43.925Z,81
2024-04-09T01:48:56.017Z,80
2024-04-09T01:50:07.886Z,81
2024-04-09T01:51:20.374Z,80
2024-04-09T01:52:32.379Z,80
2024-04-09T01:53:44.362Z,80
2024-04-09T01:54:56.330Z,79
2024-04-09T01:56:08.327Z,79
2024-04-09T01:57:20.399Z,80
2024-04-09T01:58:32.355Z,80
2024-04-09T01:59:44.321Z,80
2024-04-09T02:00:56.345Z,79
2024-04-09T02:02:08.311Z,80
2024-04-09T02:03:20.443Z,80
2024-04-09T02:04:32.349Z,80
2024-04-09T02:05:44.335Z,80
2024-04-09T02:06:56.355Z,80
2024-04-09T02:08:08.316Z,79
2024-04-09T02:09:20.351Z,80
2024-04-09T02:10:32.315Z,79
2024-04-09T02:11:44.448Z,80
2024-04-09T02:12:56.392Z,80
2024-04-09T02:14:08.322Z,80
2024-04-09T02:15:20.339Z,81
2024-04-09T02:16:32.334Z,81
2024-04-09T02:17:44.374Z,81
2024-04-09T02:18:56.517Z,81
2024-04-09T02:20:08.379Z,81
2024-04-09T02:21:20.345Z,82
2024-04-09T02:22:32.326Z,82
2024-04-09T02:23:44.329Z,83
2024-04-09T02:24:56.343Z,84
2024-04-09T02:26:08.346Z,83
2024-04-09T02:27:20.329Z,83
2024-04-09T02:28:32.332Z,83
2024-04-09T02:29:44.334Z,83
2024-04-09T02:30:56.355Z,83
2024-04-09T02:32:08.406Z,83
2024-04-09T02:33:20.394Z,84
2024-04-09T02:34:32.386Z,83
2024-04-09T02:35:44.374Z,83
2024-04-09T02:36:56.334Z,83
2024-04-09T02:38:08.336Z,83
2024-04-09T02:39:20.409Z,82
2024-04-09T02:40:32.317Z,82
2024-04-09T02:41:44.335Z,81
2024-04-09T02:42:56.336Z,81
2024-04-09T02:44:08.381Z,80
2024-04-09T02:45:20.355Z,80
2024-04-09T02:46:20.338Z,80
2024-04-09T02:47:32.380Z,80
2024-04-09T02:48:44.527Z,80
2024-04-09T02:49:56.311Z,80
2024-04-09T02:51:08.359Z,80
2024-04-09T02:52:20.754Z,80
2024-04-09T02:53:32.766Z,79
2024-04-09T02:54:44.799Z,79
2024-04-09T02:55:56.760Z,80
2024-04-09T02:57:08.823Z,80
2024-04-09T02:58:20.770Z,80
2024-04-09T02:59:32.770Z,80
2024-04-09T03:00:44.973Z,80
2024-04-09T03:01:56.840Z,81
2024-04-09T03:03:08.830Z,80
2024-04-09T03:04:20.993Z,80
2024-04-09T03:05:32.826Z,80
2024-04-09T03:06:44.799Z,81
2024-04-09T03:07:56.765Z,81
2024-04-09T03:09:08.817Z,81
2024-04-09T03:10:20.770Z,82
2024-04-09T03:11:32.753Z,82
2024-04-09T03:12:44.970Z,82
2024-04-09T03:13:56.794Z,82
2024-04-09T03:15:08.787Z,83
2024-04-09T03:16:20.830Z,83
2024-04-09T03:17:32.788Z,83
2024-04-09T03:18:45.008Z,83
2024-04-09T03:19:56.847Z,83
2024-04-09T03:21:08.817Z,83
2024-04-09T03:22:20.761Z,84
2024-04-09T03:23:32.767Z,84
2024-04-09T03:24:44.777Z,84
2024-04-09T03:25:56.873Z,83
2024-04-09T03:27:08.812Z,83
2024-04-09T03:28:20.772Z,83
2024-04-09T03:29:32.782Z,82
2024-04-09T03:30:44.761Z,82
2024-04-09T03:31:56.762Z,82
2024-04-09T03:33:08.907Z,82
2024-04-09T03:34:20.855Z,81
2024-04-09T03:35:32.755Z,81
2024-04-09T03:36:44.810Z,81
2024-04-09T03:37:56.792Z,81
2024-04-09T03:39:08.898Z,81
2024-04-09T03:40:20.813Z,82
2024-04-09T03:41:32.768Z,81
2024-04-09T03:42:44.779Z,81
2024-04-09T03:43:56.762Z,81
2024-04-09T03:45:08.794Z,81
2024-04-09T03:46:20.869Z,81
2024-04-09T03:47:32.819Z,81
2024-04-09T03:48:45.548Z,81
2024-04-09T03:49:56.764Z,81
2024-04-09T03:51:09.222Z,80
2024-04-09T03:52:21.223Z,80
2024-04-09T03:53:33.198Z,80
2024-04-09T03:54:45.256Z,80
2024-04-09T03:55:57.221Z,81
2024-04-09T03:57:09.269Z,81
2024-04-09T03:58:21.222Z,81
2024-04-09T03:59:33.222Z,81
2024-04-09T04:00:45.407Z,80
2024-04-09T04:01:57.284Z,80
2024-04-09T04:03:09.306Z,80
2024-04-09T04:04:21.281Z,79
2024-04-09T04:05:33.248Z,81
2024-04-09T04:06:45.212Z,81
2024-04-09T04:07:57.197Z,80
2024-04-09T04:09:09.264Z,80
2024-04-09T04:10:21.215Z,80
2024-04-09T04:11:33.367Z,80
2024-04-09T04:12:45.236Z,81
2024-04-09T04:13:57.196Z,81
2024-04-09T04:15:09.265Z,81
2024-04-09T04:16:21.253Z,81
2024-04-09T04:17:33.240Z,81
2024-04-09T04:18:45.658Z,81
2024-04-09T04:19:57.210Z,81
2024-04-09T04:21:11.452Z,82
2024-04-09T04:22:21.246Z,81
2024-04-09T04:23:33.227Z,81
2024-04-09T04:24:45.229Z,81
2024-04-09T04:25:57.201Z,81
2024-04-09T04:27:09.212Z,81
2024-04-09T04:28:21.231Z,81
2024-04-09T04:29:33.214Z,81
2024-04-09T04:30:45.253Z,79
2024-04-09T04:31:57.234Z,79
2024-04-09T04:33:09.328Z,79
2024-04-09T04:34:21.301Z,79
2024-04-09T04:35:33.233Z,79
2024-04-09T04:36:45.245Z,78
2024-04-09T04:37:57.196Z,78
2024-04-09T04:39:09.270Z,78
2024-04-09T04:40:21.256Z,78
2024-04-09T04:41:33.240Z,77
2024-04-09T04:42:45.233Z,76
2024-04-09T04:43:57.500Z,77
2024-04-09T04:45:09.311Z,77
2024-04-09T04:46:21.216Z,76
2024-04-09T04:47:33.299Z,76
2024-04-09T04:48:45.408Z,76
2024-04-09T04:49:57.201Z,75
2024-04-09T04:51:09.689Z,75
2024-04-09T04:52:21.637Z,75
2024-04-09T04:53:33.672Z,75
2024-04-09T04:54:45.776Z,75
2024-04-09T04:55:57.671Z,75
2024-04-09T04:57:09.710Z,75
2024-04-09T04:58:21.653Z,74
2024-04-09T04:59:33.629Z,74
2024-04-09T05:00:45.778Z,73
2024-04-09T05:01:57.648Z,73
2024-04-09T05:03:21.941Z,72
2024-04-09T05:04:33.829Z,72
2024-04-09T05:05:45.661Z,71
2024-04-09T05:06:57.667Z,71
2024-04-09T05:08:09.635Z,71
2024-04-09T05:09:33.708Z,71
2024-04-09T05:10:45.633Z,70
2024-04-09T05:11:57.677Z,71
2024-04-09T05:14:09.628Z,71
2024-04-09T05:15:21.627Z,72
2024-04-09T05:16:33.672Z,72
2024-04-09T05:17:45.782Z,71
2024-04-09T05:18:57.905Z,72
2024-04-09T05:20:09.642Z,73
2024-04-09T05:21:21.660Z,72
2024-04-09T05:22:33.629Z,72
2024-04-09T05:23:45.669Z,73
2024-04-09T05:24:57.657Z,73
2024-04-09T05:26:09.633Z,73
2024-04-09T05:27:21.722Z,73
2024-04-09T05:28:33.668Z,73
2024-04-09T05:29:45.666Z,74
2024-04-09T05:30:57.669Z,74
2024-04-09T05:32:09.717Z,74
2024-04-09T05:33:21.795Z,74
2024-04-09T05:34:33.675Z,74
2024-04-09T05:35:45.681Z,74
2024-04-09T05:36:57.703Z,75
2024-04-09T05:38:09.650Z,75
2024-04-09T05:39:21.651Z,74
2024-04-09T05:40:33.646Z,74
2024-04-09T05:41:33.668Z,74
2024-04-09T05:43:45.644Z,75
2024-04-09T05:44:57.660Z,75
2024-04-09T05:46:09.642Z,74
2024-04-09T05:47:21.666Z,74
2024-04-09T05:48:33.941Z,74
2024-04-09T05:49:45.686Z,74
2024-04-09T05:50:57.712Z,74
2024-04-09T05:52:10.135Z,75
2024-04-09T05:53:22.085Z,75
2024-04-09T05:54:34.091Z,75
2024-04-09T05:55:46.094Z,75
2024-04-09T05:56:58.117Z,75
2024-04-09T05:58:10.091Z,75
2024-04-09T05:59:22.083Z,75
2024-04-09T06:00:34.345Z,75
2024-04-09T06:01:46.196Z,75
2024-04-09T06:02:58.207Z,75
2024-04-09T06:04:12.060Z,75
2024-04-09T06:05:22.091Z,75
2024-04-09T06:06:34.156Z,75
2024-04-09T06:07:46.115Z,75
2024-04-09T06:08:58.126Z,75
2024-04-09T06:10:10.090Z,75
2024-04-09T06:11:22.088Z,75
2024-04-09T06:12:34.239Z,76
2024-04-09T06:13:46.091Z,75
2024-04-09T06:14:58.166Z,76
2024-04-09T06:16:10.171Z,76
2024-04-09T06:17:22.092Z,76
2024-04-09T06:18:34.173Z,75
2024-04-09T06:19:46.170Z,75
2024-04-09T06:20:58.179Z,75
2024-04-09T06:22:10.105Z,75
2024-04-09T06:23:22.112Z,76
2024-04-09T06:24:34.155Z,76
2024-04-09T06:25:46.093Z,75
2024-04-09T06:26:58.258Z,76
2024-04-09T06:28:10.080Z,76
2024-04-09T06:29:22.096Z,76
2024-04-09T06:30:34.094Z,76
2024-04-09T06:31:46.131Z,76
2024-04-09T06:32:58.373Z,76
2024-04-09T06:34:10.157Z,75
2024-04-09T06:35:22.076Z,76
2024-04-09T06:36:34.132Z,76
2024-04-09T06:37:46.076Z,76
2024-04-09T06:38:58.186Z,76
2024-04-09T06:40:10.120Z,76
2024-04-09T06:41:22.140Z,76
2024-04-09T06:42:34.147Z,76
2024-04-09T06:43:46.075Z,76
2024-04-09T06:44:58.134Z,75
2024-04-09T06:46:10.064Z,76
2024-04-09T06:47:22.120Z,75
2024-04-09T06:48:37.073Z,75
2024-04-09T06:49:46.219Z,75
2024-04-09T06:50:58.097Z,75
2024-04-09T06:52:10.538Z,75
2024-04-09T06:53:22.501Z,74
2024-04-09T06:54:34.540Z,75
2024-04-09T06:55:46.557Z,75
2024-04-09T06:56:58.591Z,75
2024-04-09T06:58:10.514Z,75
2024-04-09T06:59:22.636Z,75
2024-04-09T07:00:34.585Z,75
2024-04-09T07:01:46.631Z,75
2024-04-09T07:02:58.606Z,75
2024-04-09T07:04:10.796Z,74
2024-04-09T07:05:22.541Z,75
2024-04-09T07:06:34.567Z,75
2024-04-09T07:07:46.578Z,75
2024-04-09T07:08:58.603Z,75
2024-04-09T07:10:10.574Z,75
2024-04-09T07:11:22.571Z,75
2024-04-09T07:12:34.758Z,75
2024-04-09T07:13:46.531Z,75
2024-04-09T07:14:58.575Z,74
2024-04-09T07:16:10.528Z,74
2024-04-09T07:17:22.781Z,75
2024-04-09T07:18:35.880Z,74
2024-04-09T07:19:46.553Z,74
2024-04-09T07:20:58.569Z,75
2024-04-09T07:22:10.522Z,75
2024-04-09T07:23:22.593Z,74
2024-04-09T07:24:34.523Z,75
2024-04-09T07:25:46.552Z,75
2024-04-09T07:26:58.710Z,75
2024-04-09T07:28:10.528Z,75
2024-04-09T07:29:22.543Z,75
2024-04-09T07:30:34.567Z,75
2024-04-09T07:31:46.669Z,75
2024-04-09T07:32:58.576Z,75
2024-04-09T07:34:10.504Z,74
2024-04-09T07:35:22.566Z,75
2024-04-09T07:36:34.554Z,75
2024-04-09T07:37:46.515Z,74
2024-04-09T07:38:58.708Z,75
2024-04-09T07:40:10.530Z,76
2024-04-09T07:41:22.642Z,75
2024-04-09T07:42:34.599Z,75
2024-04-09T07:43:46.529Z,76
2024-04-09T07:44:58.557Z,76
2024-04-09T07:46:10.535Z,75
2024-04-09T07:47:22.658Z,76
2024-04-09T07:48:34.965Z,76
2024-04-09T07:49:47.051Z,76
2024-04-09T07:50:58.577Z,76
2024-04-09T07:52:10.989Z,77
2024-04-09T07:53:22.960Z,76
2024-04-09T07:54:35.027Z,76
2024-04-09T07:55:46.939Z,76
2024-04-09T07:56:59.168Z,77
2024-04-09T07:58:11.479Z,77
2024-04-09T07:59:22.961Z,77
2024-04-09T08:00:35.001Z,77
2024-04-09T08:01:46.981Z,77
2024-04-09T08:02:59.508Z,77
2024-04-09T08:04:11.236Z,77
2024-04-09T08:05:23.017Z,77
2024-04-09T08:06:35.090Z,77
2024-04-09T08:07:47.112Z,77
2024-04-09T08:08:59.104Z,77
2024-04-09T08:10:11.099Z,77
2024-04-09T08:11:23.100Z,77
2024-04-09T08:12:34.946Z,77
2024-04-09T08:13:46.956Z,77
2024-04-09T08:14:58.957Z,78
2024-04-09T08:16:10.959Z,78
2024-04-09T08:17:23.056Z,78
2024-04-09T08:18:35.150Z,78
2024-04-09T08:19:47.072Z,78
2024-04-09T08:20:58.953Z,78
2024-04-09T08:22:10.937Z,78
2024-04-09T08:23:22.969Z,78
2024-04-09T08:24:35.038Z,78
2024-04-09T08:25:47.038Z,78
2024-04-09T08:26:59.016Z,77
2024-04-09T08:28:10.972Z,77
2024-04-09T08:29:22.968Z,77
2024-04-09T08:30:35.062Z,77
2024-04-09T08:31:46.970Z,78
2024-04-09T08:32:59.018Z,77
2024-04-09T08:34:13.070Z,77
2024-04-09T08:35:22.984Z,78
2024-04-09T08:36:35.013Z,77
2024-04-09T08:37:47.066Z,77
2024-04-09T08:38:59.262Z,77
2024-04-09T08:40:11.094Z,77
2024-04-09T08:41:22.961Z,77
2024-04-09T08:42:35.043Z,77
2024-04-09T08:43:46.972Z,77
2024-04-09T08:44:59.055Z,77
2024-04-09T08:46:11.323Z,77
2024-04-09T08:47:22.977Z,77
2024-04-09T08:48:35.191Z,77
2024-04-09T08:49:47.503Z,77
2024-04-09T08:50:59.306Z,77
2024-04-09T08:52:11.426Z,77
2024-04-09T08:53:23.434Z,78
2024-04-09T08:54:35.560Z,77
2024-04-09T08:55:47.408Z,77
2024-04-09T08:56:59.426Z,77
2024-04-09T08:58:11.411Z,77
2024-04-09T08:59:23.390Z,76
2024-04-09T09:00:35.437Z,77
2024-04-09T09:01:47.410Z,77
2024-04-09T09:02:59.470Z,76
2024-04-09T09:04:11.480Z,76
2024-04-09T09:05:23.378Z,77
2024-04-09T09:06:35.415Z,76
2024-04-09T09:07:47.429Z,77
2024-04-09T09:08:59.545Z,77
2024-04-09T09:10:11.435Z,77
2024-04-09T09:11:23.412Z,77
2024-04-09T09:12:35.401Z,76
2024-04-09T09:13:47.439Z,77
2024-04-09T09:14:59.434Z,76
2024-04-09T09:16:11.408Z,76
2024-04-09T09:17:23.436Z,77
2024-04-09T09:18:35.473Z,77
2024-04-09T09:19:47.379Z,77
2024-04-09T09:20:59.487Z,76
2024-04-09T09:22:11.413Z,77
2024-04-09T09:23:23.470Z,76
2024-04-09T09:24:35.440Z,76
2024-04-09T09:25:47.384Z,77
2024-04-09T09:26:59.464Z,77
2024-04-09T09:28:11.393Z,77
2024-04-09T09:29:23.406Z,77
2024-04-09T09:30:35.434Z,77
2024-04-09T09:31:47.446Z,77
2024-04-09T09:32:59.576Z,77
2024-04-09T09:34:11.423Z,79
2024-04-09T09:35:23.432Z,80
2024-04-09T09:36:35.408Z,81
2024-04-09T09:37:47.419Z,82
2024-04-09T09:38:59.400Z,82
2024-04-09T09:40:11.422Z,82
2024-04-09T09:41:23.405Z,82
2024-04-09T09:42:35.439Z,83
2024-04-09T09:43:47.433Z,84
2024-04-09T09:44:59.507Z,85
2024-04-09T09:46:11.387Z,84
2024-04-09T09:47:23.415Z,84
2024-04-09T09:48:35.458Z,84
2024-04-09T09:49:48.048Z,85
2024-04-09T09:50:59.440Z,85
2024-04-09T09:52:11.427Z,85
2024-04-09T09:53:23.968Z,86
2024-04-09T09:54:35.425Z,85
2024-04-09T09:55:47.376Z,85
2024-04-09T09:56:59.428Z,85
2024-04-09T09:58:11.411Z,85
2024-04-09T09:59:23.391Z,86
2024-04-09T10:00:35.604Z,85
2024-04-09T10:01:47.395Z,86
2024-04-09T10:02:59.510Z,86
2024-04-09T10:04:11.608Z,86
2024-04-09T10:05:23.437Z,86
2024-04-09T10:06:35.423Z,86
2024-04-09T10:07:47.390Z,87
2024-04-09T10:08:59.405Z,87
2024-04-09T10:10:11.429Z,86
2024-04-09T10:11:23.416Z,86
2024-04-09T10:12:35.561Z,86
2024-04-09T10:13:47.395Z,86
2024-04-09T10:14:59.471Z,85
2024-04-09T10:16:11.423Z,84
2024-04-09T10:17:23.471Z,83
2024-04-09T10:18:35.587Z,84
2024-04-09T10:19:47.404Z,83
2024-04-09T10:20:59.434Z,84
2024-04-09T10:22:11.409Z,83
2024-04-09T10:23:23.410Z,84
2024-04-09T10:24:35.437Z,84
2024-04-09T10:25:47.382Z,82
2024-04-09T10:26:59.445Z,83
2024-04-09T10:28:11.401Z,82
2024-04-09T10:29:23.384Z,83
2024-04-09T10:30:35.583Z,82
2024-04-09T10:31:47.387Z,82
2024-04-09T10:32:59.581Z,82
2024-04-09T10:34:11.527Z,82
2024-04-09T10:35:23.396Z,82
2024-04-09T10:36:35.448Z,82
2024-04-09T10:37:47.425Z,81
2024-04-09T10:38:59.468Z,82
2024-04-09T10:40:11.412Z,81
2024-04-09T10:41:23.389Z,80
2024-04-09T10:42:35.627Z,78
2024-04-09T10:43:47.422Z,77
2024-04-09T10:44:59.479Z,76
2024-04-09T10:46:13.585Z,74
2024-04-09T10:47:23.410Z,75
2024-04-09T10:48:35.530Z,75
2024-04-09T10:49:47.375Z,75
2024-04-09T10:50:59.441Z,74
2024-04-09T10:52:11.411Z,75
2024-04-09T10:53:23.408Z,75
2024-04-09T10:54:35.462Z,75
2024-04-09T10:55:47.390Z,75
2024-04-09T10:56:59.462Z,76
2024-04-09T10:58:11.430Z,76
2024-04-09T10:59:23.532Z,76
2024-04-09T11:00:35.438Z,76
2024-04-09T11:01:47.460Z,76
2024-04-09T11:02:59.441Z,77
2024-04-09T11:04:11.508Z,77
2024-04-09T11:05:23.393Z,75
2024-04-09T11:06:35.421Z,72
2024-04-09T11:07:47.428Z,74
2024-04-09T11:08:59.471Z,73
2024-04-09T11:10:11.391Z,71
2024-04-09T11:11:23.551Z,71
2024-04-09T11:12:35.411Z,71
2024-04-09T11:13:47.393Z,72
2024-04-09T11:14:59.619Z,71
2024-04-09T11:16:11.431Z,71
2024-04-09T11:17:23.468Z,71
2024-04-09T11:18:35.764Z,71
2024-04-09T11:19:49.235Z,70
2024-04-09T11:20:59.473Z,71
2024-04-09T11:22:11.375Z,71
2024-04-09T11:23:23.383Z,70
2024-04-09T11:24:35.485Z,71
2024-04-09T11:25:47.414Z,71
2024-04-09T11:26:59.432Z,71
2024-04-09T11:28:11.385Z,72
2024-04-09T11:29:23.435Z,71
2024-04-09T11:30:35.497Z,72
2024-04-09T11:31:47.400Z,73
2024-04-09T11:32:59.464Z,73
2024-04-09T11:34:11.499Z,74
2024-04-09T11:35:23.409Z,74
2024-04-09T11:36:35.578Z,75
2024-04-09T11:37:47.429Z,74
2024-04-09T11:38:59.453Z,74
2024-04-09T11:40:11.434Z,75
2024-04-09T11:41:23.402Z,72
2024-04-09T11:42:35.456Z,74
2024-04-09T11:43:47.395Z,74
2024-04-09T11:44:59.416Z,73
2024-04-09T11:46:11.394Z,74
2024-04-09T11:47:23.570Z,73
2024-04-09T11:48:35.470Z,74
2024-04-09T11:49:47.402Z,73
2024-04-09T11:50:59.461Z,75
2024-04-09T11:52:11.392Z,76
2024-04-09T11:53:24.160Z,80
2024-04-09T11:54:35.542Z,79
2024-04-09T11:55:47.406Z,79
2024-04-09T11:56:59.395Z,79
2024-04-09T11:58:11.403Z,80
2024-04-09T11:59:23.418Z,82
2024-04-09T12:00:35.538Z,82
2024-04-09T12:01:47.437Z,82
2024-04-09T12:02:59.423Z,83
2024-04-09T12:04:11.532Z,82
2024-04-09T12:05:23.694Z,79
2024-04-09T12:06:35.432Z,80
2024-04-09T12:07:47.415Z,81
2024-04-09T12:08:59.392Z,82
2024-04-09T12:10:11.386Z,83
2024-04-09T12:11:23.436Z,84
2024-04-09T12:12:35.415Z,83
2024-04-09T12:13:47.447Z,83
2024-04-09T12:14:59.398Z,83
2024-04-09T12:16:11.413Z,82
2024-04-09T12:17:23.419Z,83
2024-04-09T12:18:35.546Z,82
2024-04-09T12:19:47.438Z,82
2024-04-09T12:20:59.388Z,83
2024-04-09T12:22:11.412Z,82
2024-04-09T12:23:23.397Z,83
2024-04-09T12:24:35.497Z,83
2024-04-09T12:25:47.391Z,85
2024-04-09T12:26:59.433Z,83
2024-04-09T12:28:11.425Z,83
2024-04-09T12:29:23.428Z,83
2024-04-09T12:30:35.427Z,81
2024-04-09T12:31:47.412Z,82
2024-04-09T12:32:59.489Z,83
2024-04-09T12:34:11.504Z,83
2024-04-09T12:35:23.433Z,82
2024-04-09T12:36:35.457Z,83
2024-04-09T12:37:47.388Z,82
2024-04-09T12:38:59.435Z,83
2024-04-09T12:40:11.410Z,84
2024-04-09T12:41:24.907Z,83
2024-04-09T12:42:35.429Z,83
2024-04-09T12:43:47.414Z,82
2024-04-09T12:44:59.404Z,83
2024-04-09T12:46:11.456Z,84
2024-04-09T12:47:23.432Z,83
2024-04-09T12:48:35.706Z,83
2024-04-09T12:49:47.450Z,85
2024-04-09T12:50:59.400Z,86
2024-04-09T12:52:11.834Z,85
2024-04-09T12:53:23.891Z,83
2024-04-09T12:54:35.920Z,82
2024-04-09T12:55:47.872Z,82
2024-04-09T12:56:59.875Z,83
2024-04-09T12:58:11.844Z,83
2024-04-09T12:59:30.299Z,84
2024-04-09T13:00:48.429Z,84
2024-04-09T13:01:47.878Z,84
2024-04-09T13:02:59.973Z,84
2024-04-09T13:04:13.487Z,85
2024-04-09T13:05:24.191Z,85
2024-04-09T13:06:35.969Z,83
2024-04-09T13:07:47.851Z,83
2024-04-09T13:08:59.852Z,82
2024-04-09T13:10:11.823Z,83
2024-04-09T13:11:23.860Z,83
2024-04-09T13:12:35.870Z,82
2024-04-09T13:13:47.889Z,83
2024-04-09T13:17:23.907Z,82
2024-04-09T13:18:35.956Z,83
2024-04-09T13:19:47.917Z,83
2024-04-09T13:20:59.846Z,82
2024-04-09T13:22:11.874Z,82
2024-04-09T13:23:23.870Z,82
2024-04-09T13:24:35.851Z,81
2024-04-09T13:25:47.895Z,81
2024-04-09T13:26:59.846Z,81
2024-04-09T13:28:11.831Z,80
2024-04-09T13:29:24.076Z,80
2024-04-09T13:30:35.906Z,80
2024-04-09T13:31:47.895Z,81
2024-04-09T13:32:59.878Z,81
2024-04-09T13:34:11.910Z,80
2024-04-09T13:35:23.999Z,79
2024-04-09T13:36:35.882Z,79
2024-04-09T13:37:47.905Z,79
2024-04-09T13:38:59.826Z,79
2024-04-09T13:40:11.863Z,79
2024-04-09T13:41:23.873Z,78
2024-04-09T13:42:35.856Z,79
2024-04-09T13:43:47.860Z,79
2024-04-09T13:44:59.837Z,77
2024-04-09T13:46:11.843Z,77
2024-04-09T13:47:24.137Z,78
2024-04-09T13:48:36.027Z,77
2024-04-09T13:49:47.865Z,78
2024-04-09T13:50:59.831Z,77
2024-04-09T13:52:12.288Z,76
2024-04-09T13:53:24.325Z,77
2024-04-09T13:54:36.313Z,77
2024-04-09T13:55:48.285Z,76
2024-04-09T13:57:00.298Z,76
2024-04-09T13:58:12.264Z,76
2024-04-09T13:59:24.309Z,77
2024-04-09T14:00:36.369Z,76
2024-04-09T14:03:00.359Z,75
2024-04-09T14:04:12.329Z,76
2024-04-09T14:05:24.393Z,75
2024-04-09T14:06:36.336Z,74
2024-04-09T14:07:48.287Z,75
2024-04-09T14:09:00.288Z,75
2024-04-09T14:10:12.317Z,75
2024-04-09T14:11:24.532Z,75
2024-04-09T14:12:36.470Z,74
2024-04-09T14:13:48.304Z,75
2024-04-09T14:15:00.323Z,75
2024-04-09T14:16:12.290Z,75
2024-04-09T14:17:24.460Z,75
2024-04-09T14:18:36.350Z,75
2024-04-09T14:19:48.379Z,75
2024-04-09T14:21:00.331Z,75
2024-04-09T14:22:12.293Z,74
2024-04-09T14:23:24.485Z,75
2024-04-09T14:24:36.300Z,75
2024-04-09T14:25:48.306Z,74
2024-04-09T14:27:00.322Z,74
2024-04-09T14:28:12.317Z,74
2024-04-09T14:29:24.439Z,74
2024-04-09T14:30:36.352Z,73
2024-04-09T14:31:48.339Z,74
2024-04-09T14:33:00.406Z,74
2024-04-09T14:34:12.460Z,73
2024-04-09T14:35:24.376Z,74
2024-04-09T14:36:36.282Z,74
2024-04-09T14:37:48.308Z,74
2024-04-09T14:39:00.293Z,74
2024-04-09T14:40:12.292Z,74
2024-04-09T14:41:24.331Z,74
2024-04-09T14:42:36.282Z,75
2024-04-09T14:43:48.314Z,75
2024-04-09T14:45:00.284Z,75
2024-04-09T14:46:12.292Z,74
2024-04-09T14:47:24.519Z,74
2024-04-09T14:48:36.521Z,74
2024-04-09T14:49:48.295Z,74
2024-04-09T14:51:00.309Z,74
2024-04-09T14:52:12.298Z,75
2024-04-09T14:53:24.400Z,74
2024-04-09T14:54:36.300Z,74
2024-04-09T14:55:48.319Z,74
2024-04-09T14:57:00.281Z,74
2024-04-09T14:58:12.313Z,74
2024-04-09T15:00:24.434Z,74
2024-04-09T15:01:36.323Z,74
2024-04-09T15:02:48.378Z,74
2024-04-09T15:04:00.354Z,74
2024-04-09T15:05:12.502Z,75
2024-04-09T15:06:24.296Z,74
2024-04-09T15:07:36.326Z,75
2024-04-09T15:08:48.309Z,76
2024-04-09T15:10:00.284Z,74
2024-04-09T15:11:12.365Z,74
2024-04-09T15:12:24.334Z,74
2024-04-09T15:13:36.287Z,73
2024-04-09T15:14:48.298Z,74
2024-04-09T15:16:00.307Z,74
2024-04-09T15:17:12.324Z,74
2024-04-09T15:18:24.485Z,74
2024-04-09T15:19:36.271Z,74
2024-04-09T15:20:48.288Z,73
2024-04-09T15:22:00.352Z,74
2024-04-09T15:23:12.319Z,74
2024-04-09T15:24:24.338Z,73
2024-04-09T15:25:36.312Z,73
2024-04-09T15:26:48.315Z,73
2024-04-09T15:28:00.302Z,73
2024-04-09T15:29:12.325Z,72
2024-04-09T15:30:24.376Z,73
2024-04-09T15:31:36.304Z,72
2024-04-09T15:32:48.423Z,72
2024-04-09T15:34:00.360Z,72
2024-04-09T15:35:12.513Z,73
2024-04-09T15:36:24.327Z,72
2024-04-09T15:37:36.364Z,73
2024-04-09T15:38:48.285Z,72
2024-04-09T15:40:00.333Z,71
2024-04-09T15:41:12.346Z,71
2024-04-09T15:42:24.315Z,72
2024-04-09T15:43:36.309Z,71
2024-04-09T15:44:48.304Z,71
2024-04-09T15:46:00.310Z,72
2024-04-09T15:47:12.326Z,71
2024-04-09T15:48:24.501Z,71
2024-04-09T15:49:36.316Z,71
2024-04-09T15:51:12.783Z,71
2024-04-09T15:52:24.720Z,71
2024-04-09T15:53:36.778Z,70
2024-04-09T15:54:48.747Z,70
2024-04-09T15:56:00.749Z,71
2024-04-09T15:57:12.754Z,71
2024-04-09T15:58:24.786Z,69
2024-04-09T15:59:36.793Z,68
2024-04-09T16:00:48.840Z,68
2024-04-09T16:02:00.782Z,68
2024-04-09T16:03:12.748Z,69
2024-04-09T16:04:24.766Z,70
2024-04-09T16:05:36.835Z,70
2024-04-09T16:06:48.752Z,70
2024-04-09T16:08:00.811Z,68
2024-04-09T16:09:12.762Z,67
2024-04-09T16:10:24.732Z,66
2024-04-09T16:11:36.824Z,66
2024-04-09T16:12:48.748Z,64
2024-04-09T16:14:00.844Z,61
2024-04-09T16:15:12.737Z,61
2024-04-09T16:16:24.764Z,62
2024-04-09T16:17:36.844Z,58
2024-04-09T16:18:48.955Z,57
2024-04-09T16:20:00.820Z,58
2024-04-09T16:21:12.768Z,58
2024-04-09T16:22:24.786Z,58
2024-04-09T16:23:36.751Z,59
2024-04-09T16:24:48.737Z,60
2024-04-09T16:26:01.076Z,60
2024-04-09T16:27:12.766Z,59
2024-04-09T16:28:24.739Z,59
2024-04-09T16:29:36.883Z,59
2024-04-09T16:30:48.728Z,59
2024-04-09T16:32:00.777Z,59
2024-04-09T16:33:12.807Z,59
2024-04-09T16:34:24.742Z,58
2024-04-09T16:36:00.731Z,58
2024-04-09T16:37:12.749Z,58
2024-04-09T16:38:36.726Z,58
2024-04-09T16:39:48.803Z,57
2024-04-09T16:41:00.775Z,58
2024-04-09T16:42:12.741Z,58
2024-04-09T16:43:24.749Z,58
2024-04-09T16:44:36.798Z,58
2024-04-09T16:45:48.726Z,59
2024-04-09T16:47:01.062Z,59
2024-04-09T16:48:00.821Z,59
2024-04-09T16:49:12.815Z,59
2024-04-09T16:50:24.892Z,60
2024-04-09T16:51:37.342Z,59
2024-04-09T16:52:49.225Z,59
2024-04-09T16:54:01.181Z,59
2024-04-09T16:55:13.198Z,60
2024-04-09T16:56:25.223Z,61
2024-04-09T16:57:41.401Z,59
2024-04-09T16:58:49.190Z,59
2024-04-09T17:00:01.245Z,58
2024-04-09T17:01:13.285Z,58
2024-04-09T17:02:25.276Z,58
2024-04-09T17:03:37.387Z,58
2024-04-09T17:04:50.199Z,57
2024-04-09T17:06:01.210Z,57
2024-04-09T17:07:13.206Z,57
2024-04-09T17:08:25.252Z,58
2024-04-09T17:09:37.158Z,57
2024-04-09T17:10:49.276Z,57
2024-04-09T17:12:01.364Z,57
2024-04-09T17:13:13.174Z,57
2024-04-09T17:14:25.198Z,57